Fayetteville Regional Grannis Field Fayetteville US
ICAO: KFAY
IATA: FAY
Category: Medium
Scheduled Services: Yes

Elevation: 189 ft
TransAlt. 18000 ft.

Airport Communications:
APP/DEP:125.175
ATIS:121.25
GND:121.7
RALEIGH RDO:25.54
TWR:118.3
UNICOM:122.95

KFAY Zoom In..

Runways:

(A) RW 04 length 7709 ft width 150 ft
ILS 110.50 / hdg 38

(B) RW 10 length 4801 ft width 150 ft
---- / hdg 98

(C) RW 22 length 7709 ft width 150 ft
---- / hdg 218

(D) RW 28 length 4801 ft width 150 ft
---- / hdg 278

Location; KFAY
Day. 21 / Time. 05.53 Zulu
* Altimeter: 29.88
* Temperature: 23° c. 73.4°f.
* Wind from: 030° Speed 06 kn.
Dewpoint: 20° c.
Visibility: 10 Statute Miles.
Clouds: Overcast 1100 ft.

KFAY 210553Z 03006KT 10SM OVC011 23/20 A2988 RMK AO2 SLP113 T02280200 10244 20228 58014


Wind From 030°
Speed 06 kn.

 
 
jpsmedia.com for Web Design worldairports.se 2018   terms of use